sensor_id;sensor_type;location;lat;lon;timestamp;temperature;humidity
34542;DHT22;20784;51.332;12.410;2023-07-22T00:02:13;16.00;99.90
34542;DHT22;20784;51.332;12.410;2023-07-22T00:04:38;16.00;99.90
34542;DHT22;20784;51.332;12.410;2023-07-22T00:07:19;16.00;99.90
34542;DHT22;20784;51.332;12.410;2023-07-22T00:09:45;15.90;99.90
34542;DHT22;20784;51.332;12.410;2023-07-22T00:12:11;15.90;99.90
34542;DHT22;20784;51.332;12.410;2023-07-22T00:14:40;15.90;99.90
34542;DHT22;20784;51.332;12.410;2023-07-22T00:17:06;15.90;99.90
34542;DHT22;20784;51.332;12.410;2023-07-22T00:19:31;15.90;99.90
34542;DHT22;20784;51.332;12.410;2023-07-22T00:21:57;15.90;99.90
34542;DHT22;20784;51.332;12.410;2023-07-22T00:24:23;15.80;99.90
34542;DHT22;20784;51.332;12.410;2023-07-22T00:26:51;15.80;99.90
34542;DHT22;20784;51.332;12.410;2023-07-22T00:29:17;15.70;99.90
34542;DHT22;20784;51.332;12.410;2023-07-22T00:31:43;15.70;99.90
34542;DHT22;20784;51.332;12.410;2023-07-22T00:34:12;15.80;99.90
34542;DHT22;20784;51.332;12.410;2023-07-22T00:36:37;15.70;99.90
34542;DHT22;20784;51.332;12.410;2023-07-22T00:39:04;15.70;99.90
34542;DHT22;20784;51.332;12.410;2023-07-22T00:41:31;15.70;99.90
34542;DHT22;20784;51.332;12.410;2023-07-22T00:43:57;15.60;99.90
34542;DHT22;20784;51.332;12.410;2023-07-22T00:46:22;15.60;99.90
34542;DHT22;20784;51.332;12.410;2023-07-22T00:48:50;15.60;99.90
34542;DHT22;20784;51.332;12.410;2023-07-22T00:51:16;15.60;99.90
34542;DHT22;20784;51.332;12.410;2023-07-22T00:53:42;15.60;99.90
34542;DHT22;20784;51.332;12.410;2023-07-22T00:56:07;15.70;99.90
34542;DHT22;20784;51.332;12.410;2023-07-22T00:58:34;15.60;99.90
34542;DHT22;20784;51.332;12.410;2023-07-22T01:00:59;15.70;99.90
34542;DHT22;20784;51.332;12.410;2023-07-22T01:03:28;15.60;99.90
34542;DHT22;20784;51.332;12.410;2023-07-22T01:05:54;15.70;99.90
34542;DHT22;20784;51.332;12.410;2023-07-22T01:08:21;15.70;99.90
34542;DHT22;20784;51.332;12.410;2023-07-22T01:10:46;15.60;99.90
34542;DHT22;20784;51.332;12.410;2023-07-22T01:13:13;15.60;99.90
34542;DHT22;20784;51.332;12.410;2023-07-22T01:15:39;15.60;99.90
34542;DHT22;20784;51.332;12.410;2023-07-22T01:18:06;15.60;99.90
34542;DHT22;20784;51.332;12.410;2023-07-22T01:20:32;15.50;99.90
34542;DHT22;20784;51.332;12.410;2023-07-22T01:22:58;15.50;99.90
34542;DHT22;20784;51.332;12.410;2023-07-22T01:25:26;15.50;99.90
34542;DHT22;20784;51.332;12.410;2023-07-22T01:27:52;15.50;99.90
34542;DHT22;20784;51.332;12.410;2023-07-22T01:30:18;15.40;99.90
34542;DHT22;20784;51.332;12.410;2023-07-22T01:32:45;15.50;99.90
34542;DHT22;20784;51.332;12.410;2023-07-22T01:35:10;15.50;99.90
34542;DHT22;20784;51.332;12.410;2023-07-22T01:37:36;15.50;99.90
34542;DHT22;20784;51.332;12.410;2023-07-22T01:40:02;15.40;99.90
34542;DHT22;20784;51.332;12.410;2023-07-22T01:42:38;15.50;99.90
34542;DHT22;20784;51.332;12.410;2023-07-22T01:45:05;15.50;99.90
34542;DHT22;20784;51.332;12.410;2023-07-22T01:47:34;15.40;99.90
34542;DHT22;20784;51.332;12.410;2023-07-22T01:50:01;15.40;99.90
34542;DHT22;20784;51.332;12.410;2023-07-22T01:52:27;15.50;99.90
34542;DHT22;20784;51.332;12.410;2023-07-22T01:54:52;15.40;99.90
34542;DHT22;20784;51.332;12.410;2023-07-22T01:57:18;15.50;99.90
34542;DHT22;20784;51.332;12.410;2023-07-22T01:59:43;15.50;99.90
34542;DHT22;20784;51.332;12.410;2023-07-22T02:02:09;15.40;99.90
34542;DHT22;20784;51.332;12.410;2023-07-22T02:04:35;15.40;99.90
34542;DHT22;20784;51.332;12.410;2023-07-22T02:07:00;15.30;99.90
34542;DHT22;20784;51.332;12.410;2023-07-22T02:09:26;15.30;99.90
34542;DHT22;20784;51.332;12.410;2023-07-22T02:11:52;15.30;99.90
34542;DHT22;20784;51.332;12.410;2023-07-22T02:14:19;15.30;99.90
34542;DHT22;20784;51.332;12.410;2023-07-22T02:16:44;15.20;99.90
34542;DHT22;20784;51.332;12.410;2023-07-22T02:19:10;15.20;99.90
34542;DHT22;20784;51.332;12.410;2023-07-22T02:21:36;15.20;99.90
34542;DHT22;20784;51.332;12.410;2023-07-22T02:24:02;15.20;99.90
34542;DHT22;20784;51.332;12.410;2023-07-22T02:26:27;15.20;99.90
34542;DHT22;20784;51.332;12.410;2023-07-22T02:28:53;15.20;99.90
34542;DHT22;20784;51.332;12.410;2023-07-22T02:31:20;15.20;99.90
34542;DHT22;20784;51.332;12.410;2023-07-22T02:33:48;15.10;99.90
34542;DHT22;20784;51.332;12.410;2023-07-22T02:36:13;15.10;99.90
34542;DHT22;20784;51.332;12.410;2023-07-22T02:38:39;15.10;99.90
34542;DHT22;20784;51.332;12.410;2023-07-22T02:41:07;15.10;99.90
34542;DHT22;20784;51.332;12.410;2023-07-22T02:43:36;15.10;99.90
34542;DHT22;20784;51.332;12.410;2023-07-22T02:46:03;15.00;99.90
34542;DHT22;20784;51.332;12.410;2023-07-22T02:48:29;15.00;99.90
34542;DHT22;20784;51.332;12.410;2023-07-22T02:51:05;15.10;99.90
34542;DHT22;20784;51.332;12.410;2023-07-22T02:53:32;15.00;99.90
34542;DHT22;20784;51.332;12.410;2023-07-22T02:55:59;15.10;99.90
34542;DHT22;20784;51.332;12.410;2023-07-22T02:58:24;15.00;99.90
34542;DHT22;20784;51.332;12.410;2023-07-22T03:00:53;15.00;99.90
34542;DHT22;20784;51.332;12.410;2023-07-22T03:03:19;15.10;99.90
34542;DHT22;20784;51.332;12.410;2023-07-22T03:05:44;15.00;99.90
34542;DHT22;20784;51.332;12.410;2023-07-22T03:08:10;15.10;99.90
34542;DHT22;20784;51.332;12.410;2023-07-22T03:10:39;15.10;99.90
34542;DHT22;20784;51.332;12.410;2023-07-22T03:13:04;15.00;99.90
34542;DHT22;20784;51.332;12.410;2023-07-22T03:15:30;15.00;99.90
34542;DHT22;20784;51.332;12.410;2023-07-22T03:17:59;15.10;99.90
34542;DHT22;20784;51.332;12.410;2023-07-22T03:20:40;15.00;99.90
34542;DHT22;20784;51.332;12.410;2023-07-22T03:23:09;15.00;99.90
34542;DHT22;20784;51.332;12.410;2023-07-22T03:25:34;15.10;99.90
34542;DHT22;20784;51.332;12.410;2023-07-22T03:28:05;15.00;99.90
34542;DHT22;20784;51.332;12.410;2023-07-22T03:30:33;15.00;99.90
34542;DHT22;20784;51.332;12.410;2023-07-22T03:33:01;15.00;99.90
34542;DHT22;20784;51.332;12.410;2023-07-22T03:35:27;15.00;99.90
34542;DHT22;20784;51.332;12.410;2023-07-22T03:37:56;15.00;99.90
34542;DHT22;20784;51.332;12.410;2023-07-22T03:40:22;14.90;99.90
34542;DHT22;20784;51.332;12.410;2023-07-22T03:42:55;15.00;99.90
34542;DHT22;20784;51.332;12.410;2023-07-22T03:45:27;15.00;99.90
34542;DHT22;20784;51.332;12.410;2023-07-22T03:47:58;15.10;99.90
34542;DHT22;20784;51.332;12.410;2023-07-22T03:50:24;15.10;99.90
34542;DHT22;20784;51.332;12.410;2023-07-22T03:52:50;15.10;99.90
34542;DHT22;20784;51.332;12.410;2023-07-22T03:55:16;15.20;99.90
34542;DHT22;20784;51.332;12.410;2023-07-22T03:57:42;15.20;99.90
34542;DHT22;20784;51.332;12.410;2023-07-22T04:00:08;15.10;99.90
34542;DHT22;20784;51.332;12.410;2023-07-22T04:02:36;15.00;99.90
34542;DHT22;20784;51.332;12.410;2023-07-22T04:05:02;15.10;99.90
34542;DHT22;20784;51.332;12.410;2023-07-22T04:07:28;15.10;99.90
34542;DHT22;20784;51.332;12.410;2023-07-22T04:09:54;15.10;99.90
34542;DHT22;20784;51.332;12.410;2023-07-22T04:12:22;15.20;99.90
34542;DHT22;20784;51.332;12.410;2023-07-22T04:14:50;15.10;99.90
34542;DHT22;20784;51.332;12.410;2023-07-22T04:17:16;15.10;99.90
34542;DHT22;20784;51.332;12.410;2023-07-22T04:19:44;15.10;99.90
34542;DHT22;20784;51.332;12.410;2023-07-22T04:22:09;15.00;99.90
34542;DHT22;20784;51.332;12.410;2023-07-22T04:24:35;15.10;99.90
34542;DHT22;20784;51.332;12.410;2023-07-22T04:27:03;15.00;99.90
34542;DHT22;20784;51.332;12.410;2023-07-22T04:29:32;14.90;99.90
34542;DHT22;20784;51.332;12.410;2023-07-22T04:31:58;15.00;99.90
34542;DHT22;20784;51.332;12.410;2023-07-22T04:34:28;14.90;99.90
34542;DHT22;20784;51.332;12.410;2023-07-22T04:36:53;14.90;99.90
34542;DHT22;20784;51.332;12.410;2023-07-22T04:39:22;14.90;99.90
34542;DHT22;20784;51.332;12.410;2023-07-22T04:41:48;15.00;99.90
34542;DHT22;20784;51.332;12.410;2023-07-22T04:44:14;15.10;99.90
34542;DHT22;20784;51.332;12.410;2023-07-22T04:46:40;15.20;99.90
34542;DHT22;20784;51.332;12.410;2023-07-22T04:49:08;15.20;99.90
34542;DHT22;20784;51.332;12.410;2023-07-22T04:51:34;15.30;99.90
34542;DHT22;20784;51.332;12.410;2023-07-22T04:54:04;15.20;99.90
34542;DHT22;20784;51.332;12.410;2023-07-22T04:56:33;15.20;99.90
34542;DHT22;20784;51.332;12.410;2023-07-22T04:59:01;15.30;99.90
34542;DHT22;20784;51.332;12.410;2023-07-22T05:01:26;15.30;99.90
34542;DHT22;20784;51.332;12.410;2023-07-22T05:03:52;15.30;99.90
34542;DHT22;20784;51.332;12.410;2023-07-22T05:06:21;15.40;99.90
34542;DHT22;20784;51.332;12.410;2023-07-22T05:08:52;15.40;99.90
34542;DHT22;20784;51.332;12.410;2023-07-22T05:11:20;15.40;99.90
34542;DHT22;20784;51.332;12.410;2023-07-22T05:13:48;15.50;99.90
34542;DHT22;20784;51.332;12.410;2023-07-22T05:16:19;15.50;99.90
34542;DHT22;20784;51.332;12.410;2023-07-22T05:18:46;15.60;99.90
34542;DHT22;20784;51.332;12.410;2023-07-22T05:21:12;15.60;99.90
34542;DHT22;20784;51.332;12.410;2023-07-22T05:23:38;15.60;99.90
34542;DHT22;20784;51.332;12.410;2023-07-22T05:26:07;15.70;99.90
34542;DHT22;20784;51.332;12.410;2023-07-22T05:28:32;15.70;99.90
34542;DHT22;20784;51.332;12.410;2023-07-22T05:31:00;15.80;99.90
34542;DHT22;20784;51.332;12.410;2023-07-22T05:33:29;15.90;99.90
34542;DHT22;20784;51.332;12.410;2023-07-22T05:35:55;16.00;99.90
34542;DHT22;20784;51.332;12.410;2023-07-22T05:38:21;16.10;99.90
34542;DHT22;20784;51.332;12.410;2023-07-22T05:40:51;16.10;99.90
34542;DHT22;20784;51.332;12.410;2023-07-22T05:43:20;16.10;99.90
34542;DHT22;20784;51.332;12.410;2023-07-22T05:45:46;16.20;99.90
34542;DHT22;20784;51.332;12.410;2023-07-22T05:48:12;16.20;99.90
34542;DHT22;20784;51.332;12.410;2023-07-22T05:50:40;16.30;99.90
34542;DHT22;20784;51.332;12.410;2023-07-22T05:53:17;16.30;99.90
34542;DHT22;20784;51.332;12.410;2023-07-22T05:55:48;16.30;99.90
34542;DHT22;20784;51.332;12.410;2023-07-22T05:58:17;16.40;99.90
34542;DHT22;20784;51.332;12.410;2023-07-22T06:00:44;16.40;99.90
34542;DHT22;20784;51.332;12.410;2023-07-22T06:03:09;16.50;99.90
34542;DHT22;20784;51.332;12.410;2023-07-22T06:05:38;16.50;99.90
34542;DHT22;20784;51.332;12.410;2023-07-22T06:08:04;16.60;99.90
34542;DHT22;20784;51.332;12.410;2023-07-22T06:10:31;16.50;99.90
34542;DHT22;20784;51.332;12.410;2023-07-22T06:13:03;16.50;99.90
34542;DHT22;20784;51.332;12.410;2023-07-22T06:15:29;16.60;99.90
34542;DHT22;20784;51.332;12.410;2023-07-22T06:17:55;16.60;99.90
34542;DHT22;20784;51.332;12.410;2023-07-22T06:20:21;16.80;99.90
34542;DHT22;20784;51.332;12.410;2023-07-22T06:22:46;16.70;99.90
34542;DHT22;20784;51.332;12.410;2023-07-22T06:25:12;16.90;99.90
34542;DHT22;20784;51.332;12.410;2023-07-22T06:27:40;16.80;99.90
34542;DHT22;20784;51.332;12.410;2023-07-22T06:30:06;16.90;99.90
34542;DHT22;20784;51.332;12.410;2023-07-22T06:32:41;17.00;99.90
34542;DHT22;20784;51.332;12.410;2023-07-22T06:35:16;17.00;99.90
34542;DHT22;20784;51.332;12.410;2023-07-22T06:37:42;17.10;99.90
34542;DHT22;20784;51.332;12.410;2023-07-22T06:40:10;17.10;99.90
34542;DHT22;20784;51.332;12.410;2023-07-22T06:42:36;17.10;99.90
34542;DHT22;20784;51.332;12.410;2023-07-22T06:45:02;17.10;99.90
34542;DHT22;20784;51.332;12.410;2023-07-22T06:47:28;17.20;99.90
34542;DHT22;20784;51.332;12.410;2023-07-22T06:49:54;17.30;99.90
34542;DHT22;20784;51.332;12.410;2023-07-22T06:52:19;17.50;99.90
34542;DHT22;20784;51.332;12.410;2023-07-22T06:54:45;17.50;99.90
34542;DHT22;20784;51.332;12.410;2023-07-22T06:57:11;17.60;99.90
34542;DHT22;20784;51.332;12.410;2023-07-22T06:59:36;17.80;99.90
34542;DHT22;20784;51.332;12.410;2023-07-22T07:02:03;17.90;99.90
34542;DHT22;20784;51.332;12.410;2023-07-22T07:04:30;17.90;99.90
34542;DHT22;20784;51.332;12.410;2023-07-22T07:06:56;18.00;99.90
34542;DHT22;20784;51.332;12.410;2023-07-22T07:09:21;18.00;99.90
34542;DHT22;20784;51.332;12.410;2023-07-22T07:11:47;18.20;99.90
34542;DHT22;20784;51.332;12.410;2023-07-22T07:14:13;18.20;99.90
34542;DHT22;20784;51.332;12.410;2023-07-22T07:16:38;18.30;99.90
34542;DHT22;20784;51.332;12.410;2023-07-22T07:19:04;18.50;99.90
34542;DHT22;20784;51.332;12.410;2023-07-22T07:21:29;18.60;99.90
34542;DHT22;20784;51.332;12.410;2023-07-22T07:23:55;18.70;99.90
34542;DHT22;20784;51.332;12.410;2023-07-22T07:26:24;18.80;99.90
34542;DHT22;20784;51.332;12.410;2023-07-22T07:28:51;18.70;99.90
34542;DHT22;20784;51.332;12.410;2023-07-22T07:31:17;18.80;99.90
34542;DHT22;20784;51.332;12.410;2023-07-22T07:33:43;19.00;99.90
34542;DHT22;20784;51.332;12.410;2023-07-22T07:36:09;19.10;99.90
34542;DHT22;20784;51.332;12.410;2023-07-22T07:39:07;19.20;99.90
34542;DHT22;20784;51.332;12.410;2023-07-22T07:41:33;19.40;99.90
34542;DHT22;20784;51.332;12.410;2023-07-22T07:44:03;19.50;99.90
34542;DHT22;20784;51.332;12.410;2023-07-22T07:46:31;19.40;99.90
34542;DHT22;20784;51.332;12.410;2023-07-22T07:48:58;19.40;99.90
34542;DHT22;20784;51.332;12.410;2023-07-22T07:51:29;19.40;99.90
34542;DHT22;20784;51.332;12.410;2023-07-22T07:53:55;19.40;99.90
34542;DHT22;20784;51.332;12.410;2023-07-22T07:56:22;19.40;99.90
34542;DHT22;20784;51.332;12.410;2023-07-22T07:58:50;19.60;99.90
34542;DHT22;20784;51.332;12.410;2023-07-22T08:01:16;19.80;99.90
34542;DHT22;20784;51.332;12.410;2023-07-22T08:03:42;19.90;99.90
34542;DHT22;20784;51.332;12.410;2023-07-22T08:06:09;19.90;99.90
34542;DHT22;20784;51.332;12.410;2023-07-22T08:08:38;20.00;99.90
34542;DHT22;20784;51.332;12.410;2023-07-22T08:11:13;20.00;99.90
34542;DHT22;20784;51.332;12.410;2023-07-22T08:13:44;20.00;99.90
34542;DHT22;20784;51.332;12.410;2023-07-22T08:16:11;20.20;99.90
34542;DHT22;20784;51.332;12.410;2023-07-22T08:18:46;20.40;99.90
34542;DHT22;20784;51.332;12.410;2023-07-22T08:21:15;20.80;99.90
34542;DHT22;20784;51.332;12.410;2023-07-22T08:23:42;20.90;99.90
34542;DHT22;20784;51.332;12.410;2023-07-22T08:26:14;21.10;99.90
34542;DHT22;20784;51.332;12.410;2023-07-22T08:28:43;21.20;99.90
34542;DHT22;20784;51.332;12.410;2023-07-22T08:31:08;21.60;99.90
34542;DHT22;20784;51.332;12.410;2023-07-22T08:33:37;21.80;99.90
34542;DHT22;20784;51.332;12.410;2023-07-22T08:36:03;21.80;99.90
34542;DHT22;20784;51.332;12.410;2023-07-22T08:38:29;22.00;99.90
34542;DHT22;20784;51.332;12.410;2023-07-22T08:40:57;22.00;99.90
34542;DHT22;20784;51.332;12.410;2023-07-22T08:43:23;22.20;99.90
34542;DHT22;20784;51.332;12.410;2023-07-22T08:45:54;22.30;99.90
34542;DHT22;20784;51.332;12.410;2023-07-22T08:48:24;22.40;99.90
34542;DHT22;20784;51.332;12.410;2023-07-22T08:51:06;22.20;99.90
34542;DHT22;20784;51.332;12.410;2023-07-22T08:53:32;22.10;99.90
34542;DHT22;20784;51.332;12.410;2023-07-22T08:55:59;22.20;99.90
34542;DHT22;20784;51.332;12.410;2023-07-22T08:58:25;22.20;99.90
34542;DHT22;20784;51.332;12.410;2023-07-22T09:00:51;22.40;99.90
34542;DHT22;20784;51.332;12.410;2023-07-22T09:03:18;22.30;99.90
34542;DHT22;20784;51.332;12.410;2023-07-22T09:05:45;22.70;99.90
34542;DHT22;20784;51.332;12.410;2023-07-22T09:08:12;22.50;99.90
34542;DHT22;20784;51.332;12.410;2023-07-22T09:10:38;22.50;99.90
34542;DHT22;20784;51.332;12.410;2023-07-22T09:13:04;22.70;99.90
34542;DHT22;20784;51.332;12.410;2023-07-22T09:15:38;23.00;99.90
34542;DHT22;20784;51.332;12.410;2023-07-22T09:18:16;23.10;99.90
34542;DHT22;20784;51.332;12.410;2023-07-22T09:20:47;23.00;99.90
34542;DHT22;20784;51.332;12.410;2023-07-22T09:23:15;22.90;99.90
34542;DHT22;20784;51.332;12.410;2023-07-22T09:25:42;22.60;99.90
34542;DHT22;20784;51.332;12.410;2023-07-22T09:28:08;22.60;99.90
34542;DHT22;20784;51.332;12.410;2023-07-22T09:30:38;22.70;99.90
34542;DHT22;20784;51.332;12.410;2023-07-22T09:33:21;22.60;99.90
34542;DHT22;20784;51.332;12.410;2023-07-22T09:35:48;22.70;99.90
34542;DHT22;20784;51.332;12.410;2023-07-22T09:38:21;22.10;99.90
34542;DHT22;20784;51.332;12.410;2023-07-22T09:40:47;22.40;99.90
34542;DHT22;20784;51.332;12.410;2023-07-22T09:43:19;22.90;99.90
34542;DHT22;20784;51.332;12.410;2023-07-22T09:45:58;23.20;99.90
34542;DHT22;20784;51.332;12.410;2023-07-22T09:48:46;23.50;99.90
34542;DHT22;20784;51.332;12.410;2023-07-22T09:51:17;23.60;99.90
34542;DHT22;20784;51.332;12.410;2023-07-22T09:54:02;23.80;99.90
34542;DHT22;20784;51.332;12.410;2023-07-22T09:56:28;24.40;99.90
34542;DHT22;20784;51.332;12.410;2023-07-22T09:58:59;24.20;99.90
34542;DHT22;20784;51.332;12.410;2023-07-22T10:01:25;23.90;99.90
34542;DHT22;20784;51.332;12.410;2023-07-22T10:03:55;24.00;99.90
34542;DHT22;20784;51.332;12.410;2023-07-22T10:06:27;23.80;99.90
34542;DHT22;20784;51.332;12.410;2023-07-22T10:09:04;23.40;99.90
34542;DHT22;20784;51.332;12.410;2023-07-22T10:11:34;23.10;99.90
34542;DHT22;20784;51.332;12.410;2023-07-22T10:14:03;23.30;99.90
34542;DHT22;20784;51.332;12.410;2023-07-22T10:16:35;23.60;99.90
34542;DHT22;20784;51.332;12.410;2023-07-22T10:19:02;23.60;99.90
34542;DHT22;20784;51.332;12.410;2023-07-22T10:21:29;23.70;99.90
34542;DHT22;20784;51.332;12.410;2023-07-22T10:23:55;24.20;99.90
34542;DHT22;20784;51.332;12.410;2023-07-22T10:26:21;24.70;99.90
34542;DHT22;20784;51.332;12.410;2023-07-22T10:28:50;25.00;99.90
34542;DHT22;20784;51.332;12.410;2023-07-22T10:31:17;24.80;99.90
34542;DHT22;20784;51.332;12.410;2023-07-22T10:33:47;24.40;99.90
34542;DHT22;20784;51.332;12.410;2023-07-22T10:36:16;24.20;99.90
34542;DHT22;20784;51.332;12.410;2023-07-22T10:38:43;24.40;99.90
34542;DHT22;20784;51.332;12.410;2023-07-22T10:41:15;24.60;99.90
34542;DHT22;20784;51.332;12.410;2023-07-22T10:44:16;24.90;99.90
34542;DHT22;20784;51.332;12.410;2023-07-22T10:46:42;25.20;99.90
34542;DHT22;20784;51.332;12.410;2023-07-22T10:49:14;24.60;99.90
34542;DHT22;20784;51.332;12.410;2023-07-22T10:51:41;24.60;99.90
34542;DHT22;20784;51.332;12.410;2023-07-22T10:54:13;24.40;99.90
34542;DHT22;20784;51.332;12.410;2023-07-22T10:57:05;24.30;99.90
34542;DHT22;20784;51.332;12.410;2023-07-22T10:59:49;24.50;99.90
34542;DHT22;20784;51.332;12.410;2023-07-22T11:02:29;24.50;99.90
34542;DHT22;20784;51.332;12.410;2023-07-22T11:04:59;24.50;99.90
34542;DHT22;20784;51.332;12.410;2023-07-22T11:07:43;24.70;99.90
34542;DHT22;20784;51.332;12.410;2023-07-22T11:10:20;24.60;99.90
34542;DHT22;20784;51.332;12.410;2023-07-22T11:12:48;24.20;99.90
34542;DHT22;20784;51.332;12.410;2023-07-22T11:15:17;24.40;99.90
34542;DHT22;20784;51.332;12.410;2023-07-22T11:17:43;24.50;99.90
34542;DHT22;20784;51.332;12.410;2023-07-22T11:20:09;24.40;99.90
34542;DHT22;20784;51.332;12.410;2023-07-22T11:22:35;24.30;99.90
34542;DHT22;20784;51.332;12.410;2023-07-22T11:25:00;24.10;99.90
34542;DHT22;20784;51.332;12.410;2023-07-22T11:27:26;23.90;99.90
34542;DHT22;20784;51.332;12.410;2023-07-22T11:29:52;24.10;99.90
34542;DHT22;20784;51.332;12.410;2023-07-22T11:32:19;24.30;99.90
34542;DHT22;20784;51.332;12.410;2023-07-22T11:34:53;24.50;99.90
34542;DHT22;20784;51.332;12.410;2023-07-22T11:37:19;24.50;99.90
34542;DHT22;20784;51.332;12.410;2023-07-22T11:39:45;24.50;99.90
34542;DHT22;20784;51.332;12.410;2023-07-22T11:42:11;24.30;99.90
34542;DHT22;20784;51.332;12.410;2023-07-22T11:44:37;24.20;99.90
34542;DHT22;20784;51.332;12.410;2023-07-22T11:47:07;23.90;99.90
34542;DHT22;20784;51.332;12.410;2023-07-22T11:49:39;23.60;99.90
34542;DHT22;20784;51.332;12.410;2023-07-22T11:52:14;23.50;99.90
34542;DHT22;20784;51.332;12.410;2023-07-22T11:54:47;23.30;99.90
34542;DHT22;20784;51.332;12.410;2023-07-22T11:57:14;23.20;99.90
34542;DHT22;20784;51.332;12.410;2023-07-22T11:59:46;23.30;99.90
34542;DHT22;20784;51.332;12.410;2023-07-22T12:02:26;23.20;99.90
34542;DHT22;20784;51.332;12.410;2023-07-22T12:04:57;23.30;99.90
34542;DHT22;20784;51.332;12.410;2023-07-22T12:09:53;23.20;99.90
34542;DHT22;20784;51.332;12.410;2023-07-22T12:12:19;23.30;99.90
34542;DHT22;20784;51.332;12.410;2023-07-22T12:14:47;23.50;99.90
34542;DHT22;20784;51.332;12.410;2023-07-22T12:17:12;23.50;99.90
34542;DHT22;20784;51.332;12.410;2023-07-22T12:19:51;23.50;99.90
34542;DHT22;20784;51.332;12.410;2023-07-22T12:22:20;23.60;99.90
34542;DHT22;20784;51.332;12.410;2023-07-22T12:24:49;23.50;99.90
34542;DHT22;20784;51.332;12.410;2023-07-22T12:27:28;23.60;99.90
34542;DHT22;20784;51.332;12.410;2023-07-22T12:30:02;23.40;99.90
34542;DHT22;20784;51.332;12.410;2023-07-22T12:32:28;23.40;99.90
34542;DHT22;20784;51.332;12.410;2023-07-22T12:34:55;23.30;99.90
34542;DHT22;20784;51.332;12.410;2023-07-22T12:37:21;23.50;99.90
34542;DHT22;20784;51.332;12.410;2023-07-22T12:39:52;23.40;99.90
34542;DHT22;20784;51.332;12.410;2023-07-22T12:42:18;23.50;99.90
34542;DHT22;20784;51.332;12.410;2023-07-22T12:44:46;23.60;99.90
34542;DHT22;20784;51.332;12.410;2023-07-22T12:47:18;23.60;99.90
34542;DHT22;20784;51.332;12.410;2023-07-22T12:49:44;23.80;99.90
34542;DHT22;20784;51.332;12.410;2023-07-22T12:52:09;23.90;99.90
34542;DHT22;20784;51.332;12.410;2023-07-22T12:54:38;24.20;99.90
34542;DHT22;20784;51.332;12.410;2023-07-22T12:57:04;24.60;99.90
34542;DHT22;20784;51.332;12.410;2023-07-22T12:59:59;24.70;99.90
34542;DHT22;20784;51.332;12.410;2023-07-22T13:02:25;24.90;99.90
34542;DHT22;20784;51.332;12.410;2023-07-22T13:04:51;24.90;99.90
34542;DHT22;20784;51.332;12.410;2023-07-22T13:07:17;24.70;99.90
34542;DHT22;20784;51.332;12.410;2023-07-22T13:09:42;24.30;99.90
34542;DHT22;20784;51.332;12.410;2023-07-22T13:12:10;24.20;99.90
34542;DHT22;20784;51.332;12.410;2023-07-22T13:14:36;24.10;99.90
34542;DHT22;20784;51.332;12.410;2023-07-22T13:17:04;24.10;99.90
34542;DHT22;20784;51.332;12.410;2023-07-22T13:19:30;24.20;99.90
34542;DHT22;20784;51.332;12.410;2023-07-22T13:21:58;24.20;99.90
34542;DHT22;20784;51.332;12.410;2023-07-22T13:24:24;24.40;99.90
34542;DHT22;20784;51.332;12.410;2023-07-22T13:27:23;24.50;99.90
34542;DHT22;20784;51.332;12.410;2023-07-22T13:30:10;24.40;99.90
34542;DHT22;20784;51.332;12.410;2023-07-22T13:32:36;24.40;99.90
34542;DHT22;20784;51.332;12.410;2023-07-22T13:35:04;24.40;99.90
34542;DHT22;20784;51.332;12.410;2023-07-22T13:37:30;24.60;99.90
34542;DHT22;20784;51.332;12.410;2023-07-22T13:40:13;24.90;99.90
34542;DHT22;20784;51.332;12.410;2023-07-22T13:43:23;25.30;99.60
34542;DHT22;20784;51.332;12.410;2023-07-22T13:46:00;25.60;98.70
34542;DHT22;20784;51.332;12.410;2023-07-22T13:48:30;25.90;97.00
34542;DHT22;20784;51.332;12.410;2023-07-22T13:50:59;25.70;97.30
34542;DHT22;20784;51.332;12.410;2023-07-22T13:53:56;25.50;96.50
34542;DHT22;20784;51.332;12.410;2023-07-22T13:59:16;25.40;95.90
34542;DHT22;20784;51.332;12.410;2023-07-22T14:01:52;25.20;96.60
34542;DHT22;20784;51.332;12.410;2023-07-22T14:04:41;25.00;97.00
34542;DHT22;20784;51.332;12.410;2023-07-22T14:07:18;25.10;95.50
34542;DHT22;20784;51.332;12.410;2023-07-22T14:09:56;25.20;96.40
34542;DHT22;20784;51.332;12.410;2023-07-22T14:12:22;25.20;95.40
34542;DHT22;20784;51.332;12.410;2023-07-22T14:14:48;25.20;95.20
34542;DHT22;20784;51.332;12.410;2023-07-22T14:17:13;25.00;94.60
34542;DHT22;20784;51.332;12.410;2023-07-22T14:19:44;25.00;95.10
34542;DHT22;20784;51.332;12.410;2023-07-22T14:22:10;25.00;95.30
34542;DHT22;20784;51.332;12.410;2023-07-22T14:24:39;24.90;95.20
34542;DHT22;20784;51.332;12.410;2023-07-22T14:27:05;24.70;95.60
34542;DHT22;20784;51.332;12.410;2023-07-22T14:29:31;24.90;96.50
34542;DHT22;20784;51.332;12.410;2023-07-22T14:31:57;25.00;95.50
34542;DHT22;20784;51.332;12.410;2023-07-22T14:34:23;24.90;95.60
34542;DHT22;20784;51.332;12.410;2023-07-22T14:36:49;24.90;96.70
34542;DHT22;20784;51.332;12.410;2023-07-22T14:39:15;24.80;96.90
34542;DHT22;20784;51.332;12.410;2023-07-22T14:41:41;24.50;96.50
34542;DHT22;20784;51.332;12.410;2023-07-22T14:44:09;24.50;96.40
34542;DHT22;20784;51.332;12.410;2023-07-22T14:46:34;24.30;96.30
34542;DHT22;20784;51.332;12.410;2023-07-22T14:49:01;24.50;96.20
34542;DHT22;20784;51.332;12.410;2023-07-22T14:51:26;24.70;96.10
34542;DHT22;20784;51.332;12.410;2023-07-22T14:54:02;24.70;96.10
34542;DHT22;20784;51.332;12.410;2023-07-22T14:56:28;24.90;96.40
34542;DHT22;20784;51.332;12.410;2023-07-22T14:58:54;24.90;95.60
34542;DHT22;20784;51.332;12.410;2023-07-22T15:01:21;25.00;95.80
34542;DHT22;20784;51.332;12.410;2023-07-22T15:03:47;25.10;95.40
34542;DHT22;20784;51.332;12.410;2023-07-22T15:06:13;24.90;95.70
34542;DHT22;20784;51.332;12.410;2023-07-22T15:08:39;24.80;95.90
34542;DHT22;20784;51.332;12.410;2023-07-22T15:11:04;25.00;96.20
34542;DHT22;20784;51.332;12.410;2023-07-22T15:13:30;25.10;95.60
34542;DHT22;20784;51.332;12.410;2023-07-22T15:15:56;25.30;94.50
34542;DHT22;20784;51.332;12.410;2023-07-22T15:18:24;25.50;95.00
34542;DHT22;20784;51.332;12.410;2023-07-22T15:20:51;25.30;93.90
34542;DHT22;20784;51.332;12.410;2023-07-22T15:23:20;25.10;93.80
34542;DHT22;20784;51.332;12.410;2023-07-22T15:25:45;25.00;93.70
34542;DHT22;20784;51.332;12.410;2023-07-22T15:28:14;25.10;94.30
34542;DHT22;20784;51.332;12.410;2023-07-22T15:30:42;25.10;94.00